Time,TemperatureF,DewpointF,PressureIn,WindDirection,WindDirectionDegrees,WindSpeedMPH,WindSpeedGustMPH,Humidity,HourlyPrecipIn,Conditions,Clouds,dailyrainin,SoftwareType,DateUTC
2013-03-07 00:00:00,34.3,31.6,30.05,North,5,7.0,25.0,90,0.01,,,0.21,meteohub,2013-03-07 05:00:00,
2013-03-07 00:01:00,34.3,31.6,30.06,North,5,3.0,25.0,90,0.00,,,0.21,meteohub,2013-03-07 05:01:00,
2013-03-07 00:06:00,34.3,32.0,30.05,North,9,6.0,21.0,91,0.00,,,0.00,meteohub,2013-03-07 05:06:00,
2013-03-07 00:11:00,34.3,31.6,30.05,North,355,13.0,21.0,90,0.00,,,0.00,meteohub,2013-03-07 05:11:00,
2013-03-07 00:16:00,34.3,31.5,30.05,NNW,340,6.0,18.0,89,0.00,,,0.00,meteohub,2013-03-07 05:16:00,
2013-03-07 00:21:00,34.5,31.3,30.05,North,5,8.0,18.0,88,0.00,,,0.00,meteohub,2013-03-07 05:21:00,
2013-03-07 00:26:00,34.5,31.3,30.05,NNE,22,18.0,20.0,88,0.00,,,0.00,meteohub,2013-03-07 05:26:00,
2013-03-07 00:31:00,34.7,31.3,30.05,North,5,13.0,25.0,87,0.00,,,0.00,meteohub,2013-03-07 05:31:00,
2013-03-07 00:36:00,34.7,31.3,30.05,NNE,22,6.0,26.0,87,0.00,,,0.00,meteohub,2013-03-07 05:36:00,
2013-03-07 00:41:00,34.5,31.1,30.05,North,10,17.0,26.0,87,0.00,,,0.00,meteohub,2013-03-07 05:41:00,
2013-03-07 00:46:00,34.5,31.1,30.05,North,355,21.0,24.0,87,0.00,,,0.00,meteohub,2013-03-07 05:46:00,
2013-03-07 00:51:00,34.5,31.3,30.04,North,0,7.0,27.0,88,0.00,,,0.00,meteohub,2013-03-07 05:51:00,
2013-03-07 00:56:00,34.5,31.1,30.04,NNE,22,17.0,27.0,87,0.00,,,0.00,meteohub,2013-03-07 05:56:00,
2013-03-07 01:01:00,34.5,32.4,30.04,North,0,5.0,27.0,92,0.00,,,0.00,meteohub,2013-03-07 06:01:00,
2013-03-07 01:06:00,34.7,30.9,30.04,NNE,19,10.0,21.0,86,0.00,,,0.00,meteohub,2013-03-07 06:06:00,
2013-03-07 01:11:00,34.7,30.7,30.03,North,5,5.0,21.0,85,0.00,,,0.00,meteohub,2013-03-07 06:11:00,
2013-03-07 01:16:00,34.9,30.9,30.03,North,349,6.0,21.0,85,0.00,,,0.00,meteohub,2013-03-07 06:16:00,
2013-03-07 01:21:00,34.9,30.2,30.03,North,355,10.0,18.0,83,0.00,,,0.00,meteohub,2013-03-07 06:21:00,
2013-03-07 01:26:00,35.1,30.2,30.03,NNE,33,5.0,27.0,82,0.00,,,0.00,meteohub,2013-03-07 06:26:00,
2013-03-07 01:31:00,35.1,30.2,30.03,North,0,14.0,27.0,82,0.00,,,0.00,meteohub,2013-03-07 06:31:00,
2013-03-07 01:36:00,35.2,30.0,30.03,North,5,17.0,25.0,81,0.00,,,0.00,meteohub,2013-03-07 06:36:00,
2013-03-07 01:41:00,35.2,30.4,30.03,ENE,57,7.0,27.0,82,0.00,,,0.00,meteohub,2013-03-07 06:41:00,
2013-03-07 01:46:00,35.2,30.4,30.02,NNE,26,7.0,27.0,82,0.00,,,0.00,meteohub,2013-03-07 06:46:00,
2013-03-07 01:51:00,35.1,30.2,30.01,North,0,13.0,27.0,82,0.00,,,0.00,meteohub,2013-03-07 06:51:00,
2013-03-07 01:56:00,35.1,30.2,30.01,NNE,13,11.0,24.0,82,0.00,,,0.00,meteohub,2013-03-07 06:56:00,
2013-03-07 02:01:00,35.1,30.2,30.01,North,349,25.0,25.0,82,0.00,,,0.00,meteohub,2013-03-07 07:01:00,
2013-03-07 02:06:00,35.1,30.2,30.01,North,5,12.0,25.0,82,0.00,,,0.00,meteohub,2013-03-07 07:06:00,
2013-03-07 02:11:00,35.1,30.2,30.01,NNW,341,11.0,29.0,82,0.00,,,0.00,meteohub,2013-03-07 07:11:00,
2013-03-07 02:16:00,35.1,30.2,30.02,North,5,23.0,29.0,82,0.00,,,0.00,meteohub,2013-03-07 07:16:00,
2013-03-07 02:21:00,34.9,30.2,30.01,ENE,73,11.0,31.0,83,0.00,,,0.00,meteohub,2013-03-07 07:21:00,
2013-03-07 02:26:00,34.5,30.6,30.01,NNE,30,16.0,31.0,85,0.00,,,0.00,meteohub,2013-03-07 07:26:00,
2013-03-07 02:31:00,34.2,30.4,30.01,North,5,9.0,31.0,86,0.00,,,0.00,meteohub,2013-03-07 07:31:00,
2013-03-07 02:36:00,34.0,30.6,30.01,North,5,7.0,26.0,87,0.00,,,0.00,meteohub,2013-03-07 07:36:00,
2013-03-07 02:41:00,34.0,30.6,30.01,NE,46,12.0,26.0,87,0.00,,,0.00,meteohub,2013-03-07 07:41:00,
2013-03-07 02:46:00,34.0,30.6,30.01,North,5,12.0,26.0,87,0.00,,,0.00,meteohub,2013-03-07 07:46:00,
2013-03-07 02:51:00,34.0,30.6,30.01,North,0,12.0,26.0,87,0.00,,,0.00,meteohub,2013-03-07 07:51:00,
2013-03-07 02:56:00,34.0,30.6,30.01,North,0,17.0,28.0,87,0.00,,,0.00,meteohub,2013-03-07 07:56:00,
2013-03-07 03:01:00,33.6,30.7,30.01,North,5,9.0,28.0,89,0.00,,,0.00,meteohub,2013-03-07 08:01:00,
2013-03-07 03:07:00,33.3,30.6,30.01,North,5,14.0,28.0,90,0.00,,,0.00,meteohub,2013-03-07 08:07:00,
2013-03-07 03:12:00,33.1,30.7,30.01,NNE,16,19.0,21.0,91,0.00,,,0.00,meteohub,2013-03-07 08:12:00,
2013-03-07 03:17:00,33.1,30.7,30.01,North,5,13.0,21.0,91,0.00,,,0.00,meteohub,2013-03-07 08:17:00,
2013-03-07 03:22:00,32.7,30.7,30.02,North,9,8.0,21.0,92,0.00,,,0.00,meteohub,2013-03-07 08:22:00,
2013-03-07 03:27:00,32.7,30.9,30.02,NE,37,10.0,21.0,93,0.00,,,0.00,meteohub,2013-03-07 08:27:00,
2013-03-07 03:32:00,32.7,30.9,30.02,NNE,15,11.0,21.0,93,0.00,,,0.00,meteohub,2013-03-07 08:32:00,
2013-03-07 03:40:00,32.5,30.9,30.01,North,0,13.0,21.0,94,0.00,,,0.00,meteohub,2013-03-07 08:40:00,
2013-03-07 03:45:00,32.5,30.9,30.01,NNE,25,7.0,21.0,94,0.00,,,0.00,meteohub,2013-03-07 08:45:00,
2013-03-07 03:50:00,32.4,30.7,30.01,North,5,9.0,19.0,94,0.00,,,0.00,meteohub,2013-03-07 08:50:00,
2013-03-07 03:57:00,32.4,30.7,30.01,NNW,329,8.0,21.0,94,0.00,,,0.00,meteohub,2013-03-07 08:57:00,
2013-03-07 04:02:00,32.4,31.1,30.00,North,9,10.0,24.0,95,0.00,,,0.00,meteohub,2013-03-07 09:02:00,
2013-03-07 04:07:00,32.2,30.9,30.01,NNE,15,11.0,24.0,95,0.00,,,0.00,meteohub,2013-03-07 09:07:00,
2013-03-07 04:12:00,32.2,30.9,30.01,North,355,12.0,20.0,95,0.00,,,0.00,meteohub,2013-03-07 09:12:00,
2013-03-07 04:17:00,32.2,30.9,30.01,NNE,14,17.0,22.0,95,0.00,,,0.00,meteohub,2013-03-07 09:17:00,
2013-03-07 04:22:00,32.2,30.9,30.01,North,351,4.0,22.0,95,0.00,,,0.00,meteohub,2013-03-07 09:22:00,
2013-03-07 04:29:00,32.2,30.9,30.01,North,5,10.0,22.0,95,0.00,,,0.00,meteohub,2013-03-07 09:29:00,
2013-03-07 04:34:00,31.8,30.6,30.00,North,355,8.0,20.0,95,0.00,,,0.00,meteohub,2013-03-07 09:34:00,
2013-03-07 04:39:00,31.6,30.4,30.01,North,5,7.0,16.0,95,0.00,,,0.00,meteohub,2013-03-07 09:39:00,
2013-03-07 04:44:00,31.5,30.2,30.01,NNW,334,9.0,17.0,95,0.00,,,0.00,meteohub,2013-03-07 09:44:00,
2013-03-07 04:49:00,31.5,30.2,30.01,NNW,333,7.0,26.0,95,0.00,,,0.00,meteohub,2013-03-07 09:49:00,
2013-03-07 04:54:00,31.3,30.0,30.01,North,355,14.0,26.0,95,0.00,,,0.00,meteohub,2013-03-07 09:54:00,
2013-03-07 04:59:00,31.3,30.0,30.01,NNW,330,11.0,26.0,95,0.00,,,0.00,meteohub,2013-03-07 09:59:00,
2013-03-07 05:04:00,31.1,29.8,30.01,NNW,338,10.0,19.0,95,0.00,,,0.00,meteohub,2013-03-07 10:04:00,
2013-03-07 05:09:00,30.9,29.7,30.02,North,11,7.0,20.0,95,0.00,,,0.00,meteohub,2013-03-07 10:09:00,
2013-03-07 05:14:00,30.9,29.7,30.02,NNW,342,9.0,24.0,95,0.00,,,0.00,meteohub,2013-03-07 10:14:00,
2013-03-07 05:19:00,30.9,29.7,30.02,North,351,11.0,24.0,95,0.00,,,0.00,meteohub,2013-03-07 10:19:00,
2013-03-07 05:24:00,30.7,29.5,30.03,North,5,6.0,24.0,95,0.00,,,0.00,meteohub,2013-03-07 10:24:00,
2013-03-07 05:31:00,30.7,29.5,30.03,North,5,9.0,24.0,95,0.00,,,0.00,meteohub,2013-03-07 10:31:00,
2013-03-07 05:36:00,30.7,29.5,30.04,NNE,12,11.0,24.0,95,0.00,,,0.00,meteohub,2013-03-07 10:36:00,
2013-03-07 05:42:00,30.6,29.3,30.03,NNW,344,17.0,21.0,95,0.00,,,0.00,meteohub,2013-03-07 10:42:00,
2013-03-07 05:47:00,30.6,29.3,30.03,NNW,344,11.0,21.0,95,0.00,,,0.00,meteohub,2013-03-07 10:47:00,
2013-03-07 05:52:00,30.6,29.3,30.03,NNE,15,9.0,21.0,95,0.00,,,0.00,meteohub,2013-03-07 10:52:00,
2013-03-07 05:57:00,30.6,29.3,30.03,North,10,4.0,20.0,95,0.00,,,0.00,meteohub,2013-03-07 10:57:00,
2013-03-07 06:02:00,30.6,29.3,30.03,WSW,247,11.0,20.0,95,0.00,,,0.00,meteohub,2013-03-07 11:02:00,
2013-03-07 06:07:00,30.6,29.3,30.03,North,355,10.0,21.0,95,0.00,,,0.00,meteohub,2013-03-07 11:07:00,
2013-03-07 06:14:00,30.4,29.1,30.03,NNE,33,5.0,21.0,95,0.00,,,0.00,meteohub,2013-03-07 11:14:00,
2013-03-07 06:19:00,30.4,29.1,30.03,North,5,24.0,24.0,95,0.00,,,0.00,meteohub,2013-03-07 11:19:00,
2013-03-07 06:24:00,30.4,29.1,30.03,NNW,348,17.0,23.0,95,0.00,,,0.00,meteohub,2013-03-07 11:24:00,
2013-03-07 06:30:00,30.4,29.1,30.03,WNW,302,13.0,25.0,95,0.00,,,0.00,meteohub,2013-03-07 11:30:00,
2013-03-07 06:36:00,30.2,29.1,30.03,NNE,22,9.0,26.0,96,0.00,,,0.00,meteohub,2013-03-07 11:36:00,
2013-03-07 06:41:00,30.2,28.9,30.03,North,11,15.0,26.0,95,0.00,,,0.00,meteohub,2013-03-07 11:41:00,
2013-03-07 06:46:00,30.2,28.9,30.03,NNW,348,4.0,26.0,95,0.00,,,0.00,meteohub,2013-03-07 11:46:00,
2013-03-07 06:52:00,30.2,29.1,30.03,North,5,8.0,25.0,96,0.00,,,0.00,meteohub,2013-03-07 11:52:00,
2013-03-07 06:57:00,30.2,29.1,30.04,NNW,346,15.0,25.0,96,0.00,,,0.00,meteohub,2013-03-07 11:57:00,
2013-03-07 07:02:00,30.2,29.1,30.04,North,0,6.0,20.0,96,0.00,,,0.00,meteohub,2013-03-07 12:02:00,
2013-03-07 07:07:00,30.0,28.8,30.04,North,5,11.0,24.0,95,0.00,,,0.00,meteohub,2013-03-07 12:07:00,
2013-03-07 07:12:00,30.0,28.9,30.04,NNW,333,4.0,24.0,96,0.00,,,0.00,meteohub,2013-03-07 12:12:00,
2013-03-07 07:17:00,30.0,28.8,30.04,North,0,6.0,24.0,95,0.00,,,0.00,meteohub,2013-03-07 12:17:00,
2013-03-07 07:23:00,30.0,28.8,30.04,North,351,15.0,22.0,95,0.00,,,0.00,meteohub,2013-03-07 12:23:00,
2013-03-07 07:28:00,30.0,28.9,30.04,North,355,9.0,20.0,96,0.00,,,0.00,meteohub,2013-03-07 12:28:00,
2013-03-07 07:35:00,30.0,28.8,30.04,NNW,329,10.0,20.0,95,0.00,,,0.00,meteohub,2013-03-07 12:35:00,
2013-03-07 07:40:00,30.0,28.8,30.04,NNE,15,7.0,25.0,95,0.00,,,0.00,meteohub,2013-03-07 12:40:00,
2013-03-07 07:45:00,30.0,28.8,30.04,North,5,11.0,25.0,95,0.00,,,0.00,meteohub,2013-03-07 12:45:00,
2013-03-07 07:51:00,30.0,28.8,30.04,North,5,4.0,25.0,95,0.00,,,0.00,meteohub,2013-03-07 12:51:00,
2013-03-07 07:57:00,30.0,28.8,30.04,North,355,3.0,20.0,95,0.00,,,0.00,meteohub,2013-03-07 12:57:00,
2013-03-07 08:02:00,30.0,28.9,30.04,NNW,348,6.0,20.0,96,0.00,,,0.00,meteohub,2013-03-07 13:02:00,
2013-03-07 08:07:00,30.2,28.9,30.04,NNW,338,8.0,20.0,95,0.00,,,0.00,meteohub,2013-03-07 13:07:00,
2013-03-07 08:12:00,30.2,28.9,30.04,North,0,13.0,17.0,95,0.00,,,0.00,meteohub,2013-03-07 13:12:00,
2013-03-07 08:17:00,30.2,28.9,30.04,North,5,9.0,20.0,95,0.00,,,0.00,meteohub,2013-03-07 13:17:00,
2013-03-07 08:22:00,30.4,29.1,30.04,North,350,4.0,26.0,95,0.00,,,0.00,meteohub,2013-03-07 13:22:00,
2013-03-07 08:27:00,30.4,29.1,30.04,North,355,13.0,26.0,95,0.00,,,0.00,meteohub,2013-03-07 13:27:00,
2013-03-07 08:32:00,30.4,29.1,30.04,NNW,346,11.0,26.0,95,0.00,,,0.00,meteohub,2013-03-07 13:32:00,
2013-03-07 08:37:00,30.4,28.9,30.04,NNE,22,5.0,21.0,94,0.00,,,0.00,meteohub,2013-03-07 13:37:00,
2013-03-07 08:42:00,30.6,29.1,30.04,NNE,15,6.0,21.0,94,0.00,,,0.00,meteohub,2013-03-07 13:42:00,
2013-03-07 08:50:00,30.6,29.1,30.04,NNE,27,9.0,21.0,94,0.00,,,0.00,meteohub,2013-03-07 13:50:00,
2013-03-07 08:55:00,30.7,29.5,30.03,North,5,10.0,21.0,95,0.00,,,0.00,meteohub,2013-03-07 13:55:00,
2013-03-07 09:00:00,30.7,29.3,30.04,NNW,327,13.0,23.0,94,0.00,,,0.00,meteohub,2013-03-07 14:00:00,
2013-03-07 09:05:00,30.9,29.5,30.03,North,350,7.0,23.0,94,0.00,,,0.00,meteohub,2013-03-07 14:05:00,
2013-03-07 09:12:00,30.9,29.7,30.03,North,355,6.0,23.0,95,0.00,,,0.00,meteohub,2013-03-07 14:12:00,
2013-03-07 09:17:00,31.3,30.0,30.03,NNE,27,6.0,21.0,95,0.00,,,0.00,meteohub,2013-03-07 14:17:00,
2013-03-07 09:22:00,31.3,29.8,30.03,NNW,338,4.0,27.0,94,0.00,,,0.00,meteohub,2013-03-07 14:22:00,
2013-03-07 09:27:00,31.5,30.0,30.03,North,351,16.0,27.0,94,0.00,,,0.00,meteohub,2013-03-07 14:27:00,
2013-03-07 09:32:00,31.5,30.0,30.03,North,10,7.0,24.0,94,0.00,,,0.00,meteohub,2013-03-07 14:32:00,
2013-03-07 09:37:00,31.6,30.2,30.03,NNE,19,6.0,24.0,94,0.00,,,0.00,meteohub,2013-03-07 14:37:00,
2013-03-07 09:42:00,31.8,30.4,30.03,NNE,13,10.0,24.0,94,0.00,,,0.00,meteohub,2013-03-07 14:42:00,
2013-03-07 09:47:00,31.8,30.4,30.02,North,5,15.0,19.0,94,0.00,,,0.00,meteohub,2013-03-07 14:47:00,
2013-03-07 09:52:00,31.8,30.4,30.03,North,355,5.0,24.0,94,0.00,,,0.00,meteohub,2013-03-07 14:52:00,
2013-03-07 09:57:00,32.0,30.6,30.03,North,350,7.0,24.0,94,0.00,,,0.00,meteohub,2013-03-07 14:57:00,
2013-03-07 10:02:00,32.0,30.6,30.03,NNW,342,9.0,23.0,94,0.00,,,0.00,meteohub,2013-03-07 15:02:00,
2013-03-07 10:07:00,32.2,30.6,30.03,NNE,17,11.0,22.0,94,0.00,,,0.00,meteohub,2013-03-07 15:07:00,
2013-03-07 10:12:00,32.4,30.7,30.02,North,0,5.0,22.0,94,0.00,,,0.00,meteohub,2013-03-07 15:12:00,
2013-03-07 10:17:00,32.4,30.7,30.02,NNW,345,13.0,19.0,94,0.00,,,0.00,meteohub,2013-03-07 15:17:00,
2013-03-07 10:22:00,32.4,30.7,30.02,North,5,6.0,22.0,94,0.00,,,0.00,meteohub,2013-03-07 15:22:00,
2013-03-07 10:27:00,32.4,31.1,30.02,North,355,5.0,22.0,95,0.00,,,0.00,meteohub,2013-03-07 15:27:00,
2013-03-07 10:32:00,32.4,31.1,30.03,NNE,29,14.0,22.0,95,0.00,,,0.00,meteohub,2013-03-07 15:32:00,
2013-03-07 10:40:00,32.4,31.1,30.03,NNW,340,4.0,23.0,95,0.00,,,0.00,meteohub,2013-03-07 15:40:00,
2013-03-07 10:45:00,32.5,31.3,30.03,North,11,12.0,23.0,95,0.00,,,0.00,meteohub,2013-03-07 15:45:00,
2013-03-07 10:50:00,32.5,31.3,30.03,NE,39,4.0,24.0,95,0.00,,,0.00,meteohub,2013-03-07 15:50:00,
2013-03-07 10:55:00,32.7,31.5,30.03,North,355,6.0,24.0,95,0.00,,,0.00,meteohub,2013-03-07 15:55:00,
2013-03-07 11:02:00,32.7,31.5,30.03,NNW,347,18.0,24.0,95,0.00,,,0.00,meteohub,2013-03-07 16:02:00,
2013-03-07 11:07:00,32.5,31.3,30.03,North,351,7.0,24.0,95,0.00,,,0.00,meteohub,2013-03-07 16:07:00,
2013-03-07 11:12:00,32.7,31.5,30.03,North,5,5.0,18.0,95,0.00,,,0.00,meteohub,2013-03-07 16:12:00,
2013-03-07 11:17:00,32.7,31.5,30.03,North,350,16.0,26.0,95,0.00,,,0.00,meteohub,2013-03-07 16:17:00,
2013-03-07 11:22:00,32.7,31.5,30.03,NNW,348,16.0,26.0,95,0.00,,,0.00,meteohub,2013-03-07 16:22:00,
2013-03-07 11:27:00,32.7,31.5,30.04,North,0,10.0,26.0,95,0.00,,,0.00,meteohub,2013-03-07 16:27:00,
2013-03-07 11:32:00,32.7,31.5,30.04,North,0,19.0,24.0,95,0.00,,,0.00,meteohub,2013-03-07 16:32:00,
2013-03-07 11:37:00,32.7,31.5,30.04,NNW,345,6.0,27.0,95,0.00,,,0.00,meteohub,2013-03-07 16:37:00,
2013-03-07 11:42:00,32.7,31.5,30.04,North,355,9.0,27.0,95,0.00,,,0.00,meteohub,2013-03-07 16:42:00,
2013-03-07 11:47:00,32.9,31.6,30.04,North,5,17.0,27.0,95,0.01,,,0.01,meteohub,2013-03-07 16:47:00,
2013-03-07 11:52:00,32.9,31.6,30.04,NNE,17,6.0,19.0,95,0.01,,,0.01,meteohub,2013-03-07 16:52:00,
2013-03-07 11:57:00,33.1,31.8,30.04,North,349,5.0,23.0,95,0.01,,,0.01,meteohub,2013-03-07 16:57:00,
2013-03-07 12:02:00,33.1,31.8,30.04,NNE,15,4.0,23.0,95,0.01,,,0.01,meteohub,2013-03-07 17:02:00,
2013-03-07 12:07:00,33.1,31.8,30.03,North,5,9.0,24.0,95,0.01,,,0.01,meteohub,2013-03-07 17:07:00,
2013-03-07 12:12:00,33.1,31.8,30.04,NNE,32,6.0,21.0,95,0.01,,,0.01,meteohub,2013-03-07 17:12:00,
2013-03-07 12:17:00,32.9,31.6,30.03,North,0,18.0,23.0,95,0.02,,,0.02,meteohub,2013-03-07 17:17:00,
2013-03-07 12:22:00,32.9,31.6,30.03,North,5,4.0,24.0,95,0.02,,,0.02,meteohub,2013-03-07 17:22:00,
2013-03-07 12:27:00,32.9,31.6,30.03,NNE,21,15.0,24.0,95,0.03,,,0.03,meteohub,2013-03-07 17:27:00,
2013-03-07 12:32:00,32.9,31.6,30.04,North,355,11.0,24.0,95,0.03,,,0.03,meteohub,2013-03-07 17:32:00,
2013-03-07 12:39:00,32.9,31.6,30.04,NNW,346,7.0,23.0,95,0.03,,,0.03,meteohub,2013-03-07 17:39:00,
2013-03-07 12:47:00,32.9,31.6,30.04,NNE,30,11.0,24.0,95,0.03,,,0.04,meteohub,2013-03-07 17:47:00,
2013-03-07 12:52:00,33.1,31.8,30.03,North,0,13.0,24.0,95,0.03,,,0.04,meteohub,2013-03-07 17:52:00,
2013-03-07 12:57:00,32.9,31.6,30.04,North,0,5.0,24.0,95,0.04,,,0.05,meteohub,2013-03-07 17:57:00,
2013-03-07 13:02:00,33.1,32.0,30.04,NNE,23,11.0,24.0,96,0.04,,,0.05,meteohub,2013-03-07 18:02:00,
2013-03-07 13:07:00,33.1,31.8,30.03,North,0,8.0,24.0,95,0.04,,,0.05,meteohub,2013-03-07 18:07:00,
2013-03-07 13:12:00,33.1,32.0,30.03,NNW,340,7.0,24.0,96,0.04,,,0.06,meteohub,2013-03-07 18:12:00,
2013-03-07 13:18:00,33.1,32.0,30.03,NNW,347,7.0,24.0,96,0.05,,,0.07,meteohub,2013-03-07 18:18:00,
2013-03-07 13:23:00,33.1,32.0,30.03,NNE,12,12.0,24.0,96,0.05,,,0.07,meteohub,2013-03-07 18:23:00,
2013-03-07 13:30:00,33.1,31.8,30.03,North,355,15.0,24.0,95,0.04,,,0.07,meteohub,2013-03-07 18:30:00,
2013-03-07 13:35:00,33.1,31.8,30.02,NNW,336,13.0,24.0,95,0.05,,,0.08,meteohub,2013-03-07 18:35:00,
2013-03-07 13:41:00,33.1,31.8,30.02,North,10,20.0,22.0,95,0.05,,,0.09,meteohub,2013-03-07 18:41:00,
2013-03-07 13:47:00,32.9,31.6,30.02,North,11,10.0,24.0,95,0.05,,,0.09,meteohub,2013-03-07 18:47:00,
2013-03-07 13:55:00,32.9,31.6,30.02,North,11,14.0,24.0,95,0.04,,,0.09,meteohub,2013-03-07 18:55:00,
2013-03-07 14:00:00,32.9,31.6,30.02,NNE,15,13.0,24.0,95,0.05,,,0.10,meteohub,2013-03-07 19:00:00,
2013-03-07 14:05:00,32.9,31.6,30.03,NNW,338,17.0,22.0,95,0.05,,,0.10,meteohub,2013-03-07 19:05:00,
2013-03-07 14:10:00,33.1,31.8,30.02,NNE,17,11.0,22.0,95,0.05,,,0.11,meteohub,2013-03-07 19:10:00,
2013-03-07 14:15:00,33.1,31.8,30.03,North,355,7.0,28.0,95,0.05,,,0.11,meteohub,2013-03-07 19:15:00,
2013-03-07 14:21:00,33.1,31.8,30.03,NE,36,12.0,28.0,95,0.04,,,0.11,meteohub,2013-03-07 19:21:00,
2013-03-07 14:27:00,33.1,31.8,30.03,North,0,10.0,25.0,95,0.05,,,0.12,meteohub,2013-03-07 19:27:00,
2013-03-07 14:32:00,33.1,31.8,30.03,NE,37,12.0,25.0,95,0.04,,,0.12,meteohub,2013-03-07 19:32:00,
2013-03-07 14:37:00,33.1,31.8,30.03,NNW,346,6.0,23.0,95,0.05,,,0.13,meteohub,2013-03-07 19:37:00,
2013-03-07 14:43:00,33.1,31.8,30.03,North,9,13.0,23.0,95,0.04,,,0.13,meteohub,2013-03-07 19:43:00,
2013-03-07 14:48:00,33.1,31.8,30.03,NNE,12,6.0,25.0,95,0.05,,,0.14,meteohub,2013-03-07 19:48:00,
2013-03-07 14:53:00,33.1,31.8,30.03,North,0,3.0,25.0,95,0.04,,,0.14,meteohub,2013-03-07 19:53:00,
2013-03-07 14:58:00,33.1,31.8,30.03,NNW,336,21.0,21.0,95,0.04,,,0.14,meteohub,2013-03-07 19:58:00,
2013-03-07 15:04:00,32.9,31.6,30.03,North,5,8.0,24.0,95,0.05,,,0.15,meteohub,2013-03-07 20:04:00,
2013-03-07 15:09:00,32.7,31.5,30.03,NNE,13,16.0,24.0,95,0.04,,,0.15,meteohub,2013-03-07 20:09:00,
2013-03-07 15:14:00,32.7,31.5,30.03,North,5,6.0,24.0,95,0.04,,,0.15,meteohub,2013-03-07 20:14:00,
2013-03-07 15:19:00,32.9,31.8,30.04,North,355,8.0,22.0,96,0.04,,,0.15,meteohub,2013-03-07 20:19:00,
2013-03-07 15:25:00,32.7,31.5,30.03,NNE,17,13.0,21.0,95,0.04,,,0.16,meteohub,2013-03-07 20:25:00,
2013-03-07 15:30:00,32.9,31.8,30.03,NNE,12,15.0,27.0,96,0.04,,,0.16,meteohub,2013-03-07 20:30:00,
2013-03-07 15:36:00,32.9,31.8,30.03,North,5,8.0,27.0,96,0.04,,,0.16,meteohub,2013-03-07 20:36:00,
2013-03-07 15:41:00,32.9,31.6,30.03,NNE,19,17.0,23.0,95,0.04,,,0.17,meteohub,2013-03-07 20:41:00,
2013-03-07 15:46:00,32.7,31.5,30.03,NNE,17,10.0,23.0,95,0.03,,,0.17,meteohub,2013-03-07 20:46:00,
2013-03-07 15:51:00,32.7,31.6,30.03,North,5,7.0,23.0,96,0.03,,,0.17,meteohub,2013-03-07 20:51:00,
2013-03-07 15:56:00,32.7,31.6,30.03,North,5,6.0,23.0,96,0.03,,,0.17,meteohub,2013-03-07 20:56:00,
2013-03-07 16:01:00,32.5,31.5,30.04,North,0,0.0,19.0,96,0.03,,,0.18,meteohub,2013-03-07 21:01:00,
2013-03-07 16:07:00,32.5,31.5,30.04,North,5,0.0,19.0,96,0.03,,,0.18,meteohub,2013-03-07 21:07:00,
2013-03-07 16:12:00,32.5,31.5,30.04,North,355,0.0,19.0,96,0.03,,,0.18,meteohub,2013-03-07 21:12:00,
2013-03-07 16:17:00,32.4,31.3,30.04,North,355,0.0,13.0,96,0.03,,,0.18,meteohub,2013-03-07 21:17:00,
2013-03-07 16:22:00,32.4,31.3,30.04,NNW,341,0.0,0.0,96,0.02,,,0.18,meteohub,2013-03-07 21:22:00,
2013-03-07 16:29:00,32.4,31.3,30.04,North,350,0.0,0.0,96,0.02,,,0.18,meteohub,2013-03-07 21:29:00,
2013-03-07 16:35:00,32.4,31.3,30.04,NNW,336,0.0,0.0,96,0.03,,,0.19,meteohub,2013-03-07 21:35:00,
2013-03-07 16:40:00,32.4,31.3,30.04,North,355,0.0,0.0,96,0.02,,,0.19,meteohub,2013-03-07 21:40:00,
2013-03-07 16:45:00,32.2,31.1,30.05,NNW,331,0.0,0.0,96,0.02,,,0.19,meteohub,2013-03-07 21:45:00,
2013-03-07 16:50:00,32.2,31.1,30.04,North,5,0.0,0.0,96,0.02,,,0.19,meteohub,2013-03-07 21:50:00,
2013-03-07 16:55:00,32.2,31.1,30.04,NNW,336,0.0,0.0,96,0.01,,,0.19,meteohub,2013-03-07 21:55:00,
2013-03-07 17:02:00,32.2,31.5,30.05,North,355,0.0,0.0,97,0.01,,,0.19,meteohub,2013-03-07 22:02:00,
2013-03-07 17:07:00,32.2,31.5,30.05,NNE,17,0.0,0.0,97,0.01,,,0.19,meteohub,2013-03-07 22:07:00,
2013-03-07 17:12:00,32.0,31.3,30.05,NW,323,0.0,0.0,97,0.01,,,0.19,meteohub,2013-03-07 22:12:00,
2013-03-07 17:17:00,32.0,30.9,30.05,NNW,327,13.0,0.0,96,0.01,,,0.19,meteohub,2013-03-07 22:17:00,
2013-03-07 17:22:00,31.8,30.7,30.05,NNE,28,14.0,19.0,96,0.01,,,0.19,meteohub,2013-03-07 22:22:00,
2013-03-07 17:27:00,31.8,30.7,30.05,NW,326,6.0,19.0,96,0.01,,,0.19,meteohub,2013-03-07 22:27:00,
2013-03-07 17:32:00,31.6,30.6,30.05,NNE,17,12.0,19.0,96,0.00,,,0.19,meteohub,2013-03-07 22:32:00,
2013-03-07 17:37:00,31.6,30.6,30.05,NNW,347,4.0,19.0,96,0.00,,,0.19,meteohub,2013-03-07 22:37:00,
2013-03-07 17:43:00,31.6,30.6,30.05,North,11,7.0,20.0,96,0.00,,,0.19,meteohub,2013-03-07 22:43:00,
2013-03-07 17:48:00,31.6,30.6,30.05,NNW,330,6.0,20.0,96,0.00,,,0.19,meteohub,2013-03-07 22:48:00,
2013-03-07 17:53:00,31.5,30.4,30.05,WSW,257,5.0,18.0,96,0.01,,,0.20,meteohub,2013-03-07 22:53:00,
2013-03-07 17:58:00,31.5,30.4,30.05,NNW,330,6.0,19.0,96,0.01,,,0.20,meteohub,2013-03-07 22:58:00,
2013-03-07 18:03:00,31.5,30.4,30.05,NNW,341,12.0,19.0,96,0.01,,,0.20,meteohub,2013-03-07 23:03:00,
2013-03-07 18:08:00,31.5,30.4,30.04,North,5,10.0,19.0,96,0.01,,,0.20,meteohub,2013-03-07 23:08:00,
2013-03-07 18:13:00,31.3,30.2,30.05,NNE,12,11.0,17.0,96,0.01,,,0.20,meteohub,2013-03-07 23:13:00,
2013-03-07 18:18:00,31.3,30.2,30.05,North,0,18.0,24.0,96,0.01,,,0.20,meteohub,2013-03-07 23:18:00,
2013-03-07 18:23:00,31.1,30.0,30.04,NNW,347,14.0,24.0,96,0.01,,,0.20,meteohub,2013-03-07 23:23:00,
2013-03-07 18:28:00,30.9,29.8,30.05,NNW,346,16.0,24.0,96,0.01,,,0.20,meteohub,2013-03-07 23:28:00,
2013-03-07 18:33:00,30.9,29.8,30.04,North,9,5.0,20.0,96,0.01,,,0.20,meteohub,2013-03-07 23:33:00,
2013-03-07 18:38:00,30.9,29.8,30.04,NNW,336,6.0,19.0,96,0.01,,,0.20,meteohub,2013-03-07 23:38:00,
2013-03-07 18:45:00,30.9,29.8,30.04,North,350,10.0,23.0,96,0.01,,,0.20,meteohub,2013-03-07 23:45:00,
2013-03-07 18:50:00,30.9,29.8,30.04,North,5,7.0,23.0,96,0.00,,,0.20,meteohub,2013-03-07 23:50:00,
2013-03-07 18:57:00,30.7,29.7,30.04,North,355,5.0,15.0,96,0.00,,,0.20,meteohub,2013-03-07 23:57:00,
2013-03-07 19:02:00,30.7,29.7,30.04,NW,310,6.0,21.0,96,0.00,,,0.20,meteohub,2013-03-08 00:02:00,
2013-03-07 19:07:00,30.7,29.7,30.04,North,5,9.0,21.0,96,0.00,,,0.20,meteohub,2013-03-08 00:07:00,
2013-03-07 19:12:00,30.6,29.5,30.04,NNW,344,6.0,21.0,96,0.00,,,0.20,meteohub,2013-03-08 00:12:00,
2013-03-07 19:18:00,30.6,29.5,30.04,NNE,32,10.0,21.0,96,0.00,,,0.20,meteohub,2013-03-08 00:18:00,
2013-03-07 19:26:00,30.6,29.5,30.04,NNW,344,4.0,20.0,96,0.00,,,0.20,meteohub,2013-03-08 00:26:00,
2013-03-07 19:31:00,30.6,29.5,30.04,NNW,335,5.0,20.0,96,0.00,,,0.20,meteohub,2013-03-08 00:31:00,
2013-03-07 19:36:00,30.6,29.5,30.04,NNW,341,3.0,17.0,96,0.00,,,0.20,meteohub,2013-03-08 00:36:00,
2013-03-07 19:41:00,30.6,29.5,30.04,NNW,346,5.0,17.0,96,0.00,,,0.20,meteohub,2013-03-08 00:41:00,
2013-03-07 19:46:00,30.6,29.5,30.04,NNW,338,6.0,20.0,96,0.00,,,0.20,meteohub,2013-03-08 00:46:00,
2013-03-07 19:51:00,30.6,29.5,30.04,North,0,9.0,20.0,96,0.00,,,0.20,meteohub,2013-03-08 00:51:00,
2013-03-07 19:57:00,30.6,29.3,30.04,North,350,10.0,20.0,95,0.00,,,0.20,meteohub,2013-03-08 00:57:00,
2013-03-07 20:02:00,30.6,29.3,30.04,NNW,332,9.0,20.0,95,0.00,,,0.20,meteohub,2013-03-08 01:02:00,
2013-03-07 20:07:00,30.6,29.3,30.04,NW,324,13.0,22.0,95,0.00,,,0.20,meteohub,2013-03-08 01:07:00,
2013-03-07 20:12:00,30.6,29.3,30.04,NW,309,5.0,22.0,95,0.00,,,0.20,meteohub,2013-03-08 01:12:00,
2013-03-07 20:17:00,30.4,29.1,30.04,North,351,3.0,22.0,95,0.00,,,0.20,meteohub,2013-03-08 01:17:00,
2013-03-07 20:22:00,30.4,29.1,30.04,North,355,6.0,19.0,95,0.00,,,0.20,meteohub,2013-03-08 01:22:00,
2013-03-07 20:27:00,30.4,29.1,30.04,NNW,340,5.0,16.0,95,0.00,,,0.20,meteohub,2013-03-08 01:27:00,
2013-03-07 20:32:00,30.4,29.1,30.03,NW,310,6.0,18.0,95,0.00,,,0.20,meteohub,2013-03-08 01:32:00,
2013-03-07 20:37:00,30.4,29.3,30.03,North,351,1.0,19.0,96,0.00,,,0.20,meteohub,2013-03-08 01:37:00,
2013-03-07 20:42:00,30.4,29.3,30.03,North,355,14.0,19.0,96,0.00,,,0.20,meteohub,2013-03-08 01:42:00,
2013-03-07 20:47:00,30.4,29.3,30.03,North,349,4.0,19.0,96,0.00,,,0.20,meteohub,2013-03-08 01:47:00,
2013-03-07 20:52:00,30.4,29.3,30.03,North,0,3.0,17.0,96,0.00,,,0.20,meteohub,2013-03-08 01:52:00,
2013-03-07 20:57:00,30.4,29.3,30.03,North,355,5.0,17.0,96,0.00,,,0.20,meteohub,2013-03-08 01:57:00,
2013-03-07 21:02:00,30.4,29.3,30.03,NNE,20,9.0,14.0,96,0.00,,,0.20,meteohub,2013-03-08 02:02:00,
2013-03-07 21:09:00,30.4,29.3,30.03,NNE,28,12.0,14.0,96,0.00,,,0.20,meteohub,2013-03-08 02:09:00,
2013-03-07 21:14:00,30.4,29.3,30.02,North,0,13.0,17.0,96,0.00,,,0.20,meteohub,2013-03-08 02:14:00,
2013-03-07 21:19:00,30.2,29.1,30.03,NNW,331,3.0,17.0,96,0.00,,,0.20,meteohub,2013-03-08 02:19:00,
2013-03-07 21:24:00,30.4,29.3,30.03,NE,39,4.0,17.0,96,0.00,,,0.20,meteohub,2013-03-08 02:24:00,
2013-03-07 21:29:00,30.4,29.3,30.03,North,5,6.0,16.0,96,0.00,,,0.20,meteohub,2013-03-08 02:29:00,
2013-03-07 21:34:00,30.2,29.1,30.03,North,0,7.0,16.0,96,0.00,,,0.20,meteohub,2013-03-08 02:34:00,
2013-03-07 21:40:00,30.4,29.3,30.02,NNW,346,6.0,18.0,96,0.00,,,0.20,meteohub,2013-03-08 02:40:00,
2013-03-07 21:45:00,30.4,29.3,30.02,NNW,332,12.0,18.0,96,0.00,,,0.20,meteohub,2013-03-08 02:45:00,
2013-03-07 21:50:00,30.2,28.9,30.02,NNW,336,4.0,18.0,95,0.00,,,0.20,meteohub,2013-03-08 02:50:00,
2013-03-07 21:56:00,30.4,29.1,30.02,North,355,5.0,23.0,95,0.00,,,0.20,meteohub,2013-03-08 02:56:00,
2013-03-07 22:01:00,30.2,28.9,30.02,NNW,343,5.0,23.0,95,0.00,,,0.20,meteohub,2013-03-08 03:01:00,
2013-03-07 22:07:00,30.2,28.9,30.01,NNW,331,8.0,23.0,95,0.00,,,0.20,meteohub,2013-03-08 03:07:00,
2013-03-07 22:12:00,30.2,29.1,30.01,NNW,340,12.0,20.0,96,0.00,,,0.20,meteohub,2013-03-08 03:12:00,
2013-03-07 22:17:00,30.2,28.9,30.01,NNE,19,12.0,19.0,95,0.00,,,0.20,meteohub,2013-03-08 03:17:00,
2013-03-07 22:22:00,30.2,29.1,30.01,NNW,338,4.0,19.0,96,0.00,,,0.20,meteohub,2013-03-08 03:22:00,
2013-03-07 22:27:00,30.2,28.9,30.01,NW,320,4.0,17.0,95,0.00,,,0.20,meteohub,2013-03-08 03:27:00,
2013-03-07 22:32:00,30.2,28.9,30.01,North,10,15.0,17.0,95,0.00,,,0.20,meteohub,2013-03-08 03:32:00,
2013-03-07 22:37:00,30.2,28.9,30.01,NNW,344,10.0,17.0,95,0.00,,,0.20,meteohub,2013-03-08 03:37:00,
2013-03-07 22:44:00,30.2,29.1,30.01,North,0,5.0,17.0,96,0.00,,,0.20,meteohub,2013-03-08 03:44:00,
2013-03-07 22:49:00,30.2,29.1,30.01,NNW,339,6.0,17.0,96,0.00,,,0.20,meteohub,2013-03-08 03:49:00,
2013-03-07 22:54:00,30.2,29.1,30.01,North,5,9.0,17.0,96,0.00,,,0.20,meteohub,2013-03-08 03:54:00,
2013-03-07 22:59:00,30.0,28.9,30.00,North,5,2.0,16.0,96,0.00,,,0.20,meteohub,2013-03-08 03:59:00,
2013-03-07 23:04:00,30.0,28.9,30.00,NNW,348,4.0,16.0,96,0.00,,,0.20,meteohub,2013-03-08 04:04:00,
2013-03-07 23:10:00,30.0,28.9,30.00,NW,325,11.0,16.0,96,0.00,,,0.20,meteohub,2013-03-08 04:10:00,
2013-03-07 23:15:00,30.0,28.9,30.00,NW,322,10.0,17.0,96,0.00,,,0.20,meteohub,2013-03-08 04:15:00,
2013-03-07 23:22:00,30.0,28.9,30.00,North,0,5.0,23.0,96,0.00,,,0.20,meteohub,2013-03-08 04:22:00,
2013-03-07 23:27:00,30.0,28.9,30.01,NNE,19,9.0,23.0,96,0.00,,,0.20,meteohub,2013-03-08 04:27:00,
2013-03-07 23:32:00,30.0,28.9,30.01,NNW,338,4.0,23.0,96,0.00,,,0.20,meteohub,2013-03-08 04:32:00,
2013-03-07 23:37:00,30.0,28.9,30.01,NNW,346,4.0,19.0,96,0.00,,,0.20,meteohub,2013-03-08 04:37:00,
2013-03-07 23:42:00,30.0,28.9,30.01,North,5,12.0,19.0,96,0.00,,,0.20,meteohub,2013-03-08 04:42:00,
2013-03-07 23:47:00,30.0,28.9,30.01,NW,321,10.0,19.0,96,0.00,,,0.20,meteohub,2013-03-08 04:47:00,
2013-03-07 23:52:00,30.0,28.9,30.00,North,355,6.0,19.0,96,0.00,,,0.20,meteohub,2013-03-08 04:52:00,
2013-03-07 23:57:00,30.0,28.9,30.00,NNW,336,8.0,19.0,96,0.00,,,0.20,meteohub,2013-03-08 04:57:00,